Time;durP1;ratioP1;P1;durP2;ratioP2;P2;SDS_P1;SDS_P2;PMS_P1;PMS_P2;Temp;Humidity;BMP_temperature;BMP_pressure;BME280_temperature;BME280_humidity;BME280_pressure;Samples;Min_cycle;Max_cycle;Signal;HPM_P1;HPM_P2
2021/06/20 00:00:54;;;;;;;4.85;4.30;;;;;;;23.18;74.97;95912.88;5097913;28;20036;-74
2021/06/20 00:03:21;;;;;;;5.65;4.72;;;;;;;23.20;74.81;95906.13;5097110;28;20031;-74
2021/06/20 00:05:54;;;;;;;5.07;4.45;;;;;;;23.22;75.38;95908.50;5097351;28;20040;-74
2021/06/20 00:08:21;;;;;;;5.07;4.50;;;;;;;23.22;74.85;95906.59;5096921;28;20032;-74
2021/06/20 00:10:49;;;;;;;4.03;3.72;;;;;;;23.22;74.96;95906.59;5096858;28;20399;-74
2021/06/20 00:13:17;;;;;;;4.35;4.05;;;;;;;23.23;74.97;95907.41;5096597;28;20035;-73
2021/06/20 00:15:44;;;;;;;4.35;4.05;;;;;;;23.20;74.87;95908.03;5097260;28;20035;-74
2021/06/20 00:18:11;;;;;;;5.05;4.55;;;;;;;23.15;75.01;95905.50;5096430;28;20044;-74
2021/06/20 00:20:41;;;;;;;4.57;4.18;;;;;;;23.08;75.37;95922.78;5096707;28;20047;-74
2021/06/20 00:23:11;;;;;;;4.68;4.28;;;;;;;23.03;75.62;95922.91;5096528;28;20059;-74
2021/06/20 00:25:38;;;;;;;4.00;3.70;;;;;;;23.02;75.70;95926.72;5095998;28;20051;-74
2021/06/20 00:28:06;;;;;;;4.53;4.10;;;;;;;23.03;75.74;95928.28;5097022;28;20468;-75
2021/06/20 00:30:34;;;;;;;4.20;3.90;;;;;;;23.04;75.92;95927.19;5096472;28;20051;-74
2021/06/20 00:33:00;;;;;;;4.80;4.28;;;;;;;23.05;75.99;95939.44;5096400;28;20040;-74
2021/06/20 00:35:27;;;;;;;4.68;4.20;;;;;;;23.00;75.86;95931.56;5095373;28;20495;-74
2021/06/20 00:37:54;;;;;;;4.50;4.15;;;;;;;22.90;75.88;95934.50;5095700;28;20040;-74
2021/06/20 00:40:21;;;;;;;5.47;4.38;;;;;;;22.83;76.08;95936.84;5096132;28;20464;-73
2021/06/20 00:42:48;;;;;;;6.03;4.40;;;;;;;22.80;76.33;95924.84;5096274;28;20039;-73
2021/06/20 00:45:17;;;;;;;5.55;4.72;;;;;;;22.78;76.36;95927.06;5096545;28;20039;-74
2021/06/20 00:47:43;;;;;;;8.10;5.20;;;;;;;22.74;76.38;95920.78;5094939;28;20039;-73
2021/06/20 00:50:12;;;;;;;11.57;4.97;;;;;;;22.69;75.91;95924.34;5096057;28;20032;-74
2021/06/20 00:52:40;;;;;;;11.02;4.93;;;;;;;22.69;75.30;95921.69;5096022;28;20036;-74
2021/06/20 00:55:07;;;;;;;12.43;5.03;;;;;;;22.74;74.11;95911.94;5096093;28;20066;-73
2021/06/20 00:57:34;;;;;;;16.75;5.32;;;;;;;22.79;72.75;95912.59;5096083;28;20063;-73
2021/06/20 01:00:01;;;;;;;11.23;5.13;;;;;;;22.87;71.60;95919.88;5080181;28;20082;-73
2021/06/20 01:02:27;;;;;;;12.40;4.90;;;;;;;22.93;70.48;95925.06;5096066;28;20044;-73
2021/06/20 01:04:55;;;;;;;15.00;5.07;;;;;;;22.93;69.27;95917.84;5095283;28;20048;-73
2021/06/20 01:07:23;;;;;;;14.02;4.97;;;;;;;22.99;68.54;95929.19;5096115;28;20499;-73
2021/06/20 01:09:50;;;;;;;12.05;4.82;;;;;;;23.00;67.78;95934.22;5094618;28;20040;-74
2021/06/20 01:12:19;;;;;;;12.38;4.35;;;;;;;23.02;67.19;95944.66;5095479;28;20052;-74
2021/06/20 01:14:47;;;;;;;11.02;4.90;;;;;;;23.02;66.17;95939.28;5095630;28;20035;-74
2021/06/20 01:17:18;;;;;;;18.25;5.72;;;;;;;23.04;65.56;95939.78;5095465;28;20043;-74
2021/06/20 01:19:45;;;;;;;12.73;4.93;;;;;;;23.07;65.20;95944.50;5094640;28;20047;-74
2021/06/20 01:22:28;;;;;;;12.50;4.55;;;;;;;23.08;63.66;95943.41;5095737;28;20043;-73
2021/06/20 01:25:06;;;;;;;10.75;4.57;;;;;;;23.08;63.02;95951.44;5088506;28;20039;-73
2021/06/20 01:27:37;;;;;;;12.40;4.82;;;;;;;23.06;63.66;95951.72;5095460;28;20036;-73
2021/06/20 01:30:05;;;;;;;14.40;4.93;;;;;;;23.08;63.75;95967.47;5095386;28;20077;-73
2021/06/20 01:32:32;;;;;;;10.93;4.93;;;;;;;23.07;63.67;95968.56;5095426;28;20039;-73
2021/06/20 01:34:58;;;;;;;15.85;5.85;;;;;;;23.07;63.04;95964.00;5095712;28;20039;-73
2021/06/20 01:37:25;;;;;;;11.20;4.63;;;;;;;23.08;62.95;95978.19;5095355;28;20048;-74
2021/06/20 01:39:51;;;;;;;14.63;5.65;;;;;;;23.10;62.78;95971.41;5095288;28;20043;-74
2021/06/20 01:42:19;;;;;;;13.38;4.70;;;;;;;23.13;62.77;95985.28;5094868;28;20032;-74
2021/06/20 01:44:53;;;;;;;12.15;4.72;;;;;;;23.15;62.00;95985.75;5095017;28;20032;-74
2021/06/20 01:47:24;;;;;;;14.38;5.15;;;;;;;23.14;62.38;95981.47;5095503;28;20071;-73
2021/06/20 01:49:51;;;;;;;11.43;4.25;;;;;;;23.12;62.31;95981.81;5095258;28;20443;-73
2021/06/20 01:52:19;;;;;;;9.75;4.55;;;;;;;23.12;62.38;95975.66;5094892;28;20036;-73
2021/06/20 01:54:52;;;;;;;14.15;4.60;;;;;;;23.09;62.16;95980.53;5094429;28;20052;-73
2021/06/20 01:57:29;;;;;;;12.27;4.70;;;;;;;23.07;62.41;95980.03;5094813;28;20423;-73
2021/06/20 01:59:57;;;;;;;11.45;5.10;;;;;;;23.04;62.37;95993.25;5095170;28;20031;-73
2021/06/20 02:02:25;;;;;;;12.05;5.00;;;;;;;23.02;62.53;96006.16;5094757;28;20384;-73
2021/06/20 02:04:52;;;;;;;13.05;4.40;;;;;;;22.99;62.87;96004.84;5094529;28;20495;-73
2021/06/20 02:07:18;;;;;;;13.95;5.40;;;;;;;22.97;62.88;96012.38;5094472;28;20032;-73
2021/06/20 02:09:45;;;;;;;11.95;4.57;;;;;;;22.95;62.88;96013.78;5094396;28;20043;-73
2021/06/20 02:12:14;;;;;;;12.93;4.88;;;;;;;22.92;63.09;96028.56;5094418;28;20059;-73
2021/06/20 02:14:41;;;;;;;12.18;4.80;;;;;;;22.88;63.24;96035.63;5094532;28;20059;-73
2021/06/20 02:17:19;;;;;;;9.65;4.85;;;;;;;22.85;63.90;96044.28;5094240;28;20048;-73
2021/06/20 02:19:45;;;;;;;13.77;4.68;;;;;;;22.82;63.47;96032.28;5084049;28;20051;-74
2021/06/20 02:22:11;;;;;;;10.98;4.82;;;;;;;22.80;63.70;96037.13;5094427;28;20036;-73
2021/06/20 02:24:37;;;;;;;11.45;4.38;;;;;;;22.79;63.88;96034.78;5093993;28;20035;-73
2021/06/20 02:27:05;;;;;;;11.73;4.63;;;;;;;22.74;64.14;96035.72;5094490;28;20044;-73
2021/06/20 02:29:32;;;;;;;10.68;4.78;;;;;;;22.72;64.29;96034.41;5094102;28;20036;-73
2021/06/20 02:31:58;;;;;;;12.25;4.68;;;;;;;22.68;64.40;96026.25;5094486;28;20036;-74
2021/06/20 02:34:24;;;;;;;11.80;5.05;;;;;;;22.66;64.50;96034.56;5093739;28;20040;-74
2021/06/20 02:36:51;;;;;;;11.25;4.28;;;;;;;22.64;64.68;96031.41;5094666;28;20036;-74
2021/06/20 02:39:17;;;;;;;11.10;4.75;;;;;;;22.64;64.87;96025.28;5092899;28;20028;-73
2021/06/20 02:41:46;;;;;;;12.50;4.38;;;;;;;22.64;64.88;96044.00;5092878;28;20040;-73
2021/06/20 02:44:12;;;;;;;15.90;4.50;;;;;;;22.64;64.85;96060.03;5094317;28;20131;-74
2021/06/20 02:46:38;;;;;;;11.95;4.07;;;;;;;22.65;65.09;96058.91;5093936;28;20043;-74
2021/06/20 02:49:04;;;;;;;10.00;4.10;;;;;;;22.66;65.01;96057.84;5093651;28;20059;-74
2021/06/20 02:51:30;;;;;;;9.32;4.43;;;;;;;22.64;64.91;96054.69;5093955;28;20082;-73
2021/06/20 02:53:57;;;;;;;11.85;4.38;;;;;;;22.64;65.05;96054.69;5093360;28;20032;-74
2021/06/20 02:56:23;;;;;;;7.93;4.07;;;;;;;22.60;65.08;96043.81;5093761;28;20399;-73
2021/06/20 02:58:49;;;;;;;12.10;4.32;;;;;;;22.58;65.38;96058.56;5093621;28;20052;-73
2021/06/20 03:01:16;;;;;;;10.45;4.43;;;;;;;22.55;65.45;96051.94;5093722;28;20040;-73
2021/06/20 03:03:42;;;;;;;9.63;4.47;;;;;;;22.56;65.62;96047.41;5093178;28;20044;-75
2021/06/20 03:06:08;;;;;;;11.25;3.92;;;;;;;22.56;65.72;96064.22;5093161;28;20032;-74
2021/06/20 03:08:34;;;;;;;9.52;4.05;;;;;;;22.56;65.77;96064.22;5093647;28;20031;-74
2021/06/20 03:11:00;;;;;;;11.35;4.60;;;;;;;22.55;65.78;96070.63;5093493;28;20043;-73
2021/06/20 03:13:28;;;;;;;12.85;4.30;;;;;;;22.53;65.83;96077.38;5093137;28;20043;-73
2021/06/20 03:15:54;;;;;;;13.57;4.65;;;;;;;22.49;65.97;96074.53;5093405;28;20036;-73
2021/06/20 03:18:21;;;;;;;10.23;4.28;;;;;;;22.44;65.80;96066.63;5093538;28;20464;-73
2021/06/20 03:20:47;;;;;;;10.60;4.18;;;;;;;22.42;66.22;96066.16;5093390;28;20032;-74
2021/06/20 03:23:14;;;;;;;9.55;4.30;;;;;;;22.41;66.34;96067.25;5093739;28;20397;-73
2021/06/20 03:25:41;;;;;;;8.38;3.60;;;;;;;22.41;66.49;96072.59;5093425;28;20040;-73
2021/06/20 03:28:08;;;;;;;9.95;3.90;;;;;;;22.40;66.50;96082.47;5093454;28;20036;-74
2021/06/20 03:30:35;;;;;;;10.10;4.03;;;;;;;22.40;66.64;96089.69;5093333;28;20051;-74
2021/06/20 03:33:02;;;;;;;8.95;3.70;;;;;;;22.39;66.61;96088.13;5093224;28;20047;-74
2021/06/20 03:35:28;;;;;;;9.43;4.20;;;;;;;22.39;66.60;96093.47;5093267;28;20032;-74
2021/06/20 03:37:55;;;;;;;8.88;3.50;;;;;;;22.38;66.80;96084.66;5093110;28;20051;-73
2021/06/20 03:40:22;;;;;;;8.80;3.67;;;;;;;22.37;66.71;96090.31;5091994;28;20043;-74
2021/06/20 03:42:48;;;;;;;9.68;4.07;;;;;;;22.35;66.57;96090.63;5093325;28;20506;-74
2021/06/20 03:45:15;;;;;;;8.48;3.67;;;;;;;22.33;66.61;96100.03;5093189;28;20040;-74
2021/06/20 03:47:43;;;;;;;7.70;3.70;;;;;;;22.28;66.59;96103.59;5092935;28;20043;-74
2021/06/20 03:50:10;;;;;;;9.07;3.15;;;;;;;22.22;66.45;96100.22;5093493;28;20040;-74
2021/06/20 03:52:38;;;;;;;9.57;3.58;;;;;;;22.19;66.47;96090.13;5093249;28;20040;-73
2021/06/20 03:55:07;;;;;;;8.55;3.55;;;;;;;22.17;66.45;96078.94;5092872;28;20408;-74
2021/06/20 03:57:33;;;;;;;6.90;3.00;;;;;;;22.19;66.71;96074.09;5093181;28;20047;-73
2021/06/20 03:59:59;;;;;;;6.80;3.13;;;;;;;22.21;66.51;96071.13;5092284;28;20064;-73
2021/06/20 04:02:25;;;;;;;7.43;2.70;;;;;;;22.19;66.47;96062.63;5093149;28;20035;-74
2021/06/20 04:04:52;;;;;;;8.63;3.08;;;;;;;22.19;66.24;96058.06;5092971;28;20036;-74
2021/06/20 04:07:18;;;;;;;7.38;3.15;;;;;;;22.20;66.14;96070.34;5092915;28;20036;-73
2021/06/20 04:09:45;;;;;;;9.00;2.67;;;;;;;22.19;65.83;96074.09;5092981;28;20415;-73
2021/06/20 04:12:13;;;;;;;6.45;2.50;;;;;;;22.21;65.71;96084.50;5092866;28;20043;-74
2021/06/20 04:14:41;;;;;;;5.60;2.22;;;;;;;22.21;65.39;96108.53;5092868;28;20044;-74
2021/06/20 04:17:08;;;;;;;3.38;2.30;;;;;;;22.18;65.10;96103.81;5093100;28;20039;-74
2021/06/20 04:19:34;;;;;;;5.95;2.83;;;;;;;22.15;64.79;96086.47;5092607;28;20036;-74
2021/06/20 04:22:01;;;;;;;11.18;2.83;;;;;;;22.14;64.79;96076.13;5093060;28;20048;-74
2021/06/20 04:24:27;;;;;;;5.68;2.65;;;;;;;22.13;64.84;96059.28;5096038;28;20032;-74
2021/06/20 04:26:54;;;;;;;4.07;2.30;;;;;;;22.17;64.93;96056.81;5096438;28;20044;-74
2021/06/20 04:29:21;;;;;;;8.10;2.58;;;;;;;22.21;65.23;96052.44;5096528;28;20470;-73
2021/06/20 04:31:47;;;;;;;8.10;2.58;;;;;;;22.21;65.10;96049.78;5096406;28;20047;-74
2021/06/20 04:34:13;;;;;;;6.95;2.47;;;;;;;22.22;65.01;96051.38;5097087;28;20036;-74
2021/06/20 04:36:40;;;;;;;8.40;2.95;;;;;;;22.24;64.93;96044.66;5096544;28;20036;-74
2021/06/20 04:39:08;;;;;;;6.32;2.58;;;;;;;22.24;64.86;96046.53;5096641;28;20047;-73
2021/06/20 04:41:35;;;;;;;4.68;2.00;;;;;;;22.27;65.14;96048.59;5096077;28;20468;-73
2021/06/20 04:44:03;;;;;;;5.18;2.28;;;;;;;22.30;65.10;96056.00;5096720;28;20039;-74
2021/06/20 04:46:34;;;;;;;5.55;2.45;;;;;;;22.33;64.92;96066.09;5096337;28;20051;-73
2021/06/20 04:49:09;;;;;;;6.53;2.63;;;;;;;22.34;64.66;96075.66;5096195;28;20065;-74
2021/06/20 04:51:39;;;;;;;5.60;2.38;;;;;;;22.35;64.77;96071.13;5096278;28;20039;-74
2021/06/20 04:54:13;;;;;;;5.20;2.42;;;;;;;22.38;65.01;96065.16;5096013;28;20028;-74
2021/06/20 04:56:41;;;;;;;8.90;2.65;;;;;;;22.43;64.77;96054.38;5096374;28;20048;-73
2021/06/20 04:59:08;;;;;;;6.50;2.47;;;;;;;22.46;64.75;96054.53;5095453;28;20052;-74
2021/06/20 05:01:35;;;;;;;6.20;2.15;;;;;;;22.49;64.61;96072.66;5096152;28;20035;-74
2021/06/20 05:04:02;;;;;;;5.30;2.55;;;;;;;22.49;64.27;96093.25;5095448;28;20416;-74
2021/06/20 05:06:28;;;;;;;4.85;2.30;;;;;;;22.42;64.28;96114.25;5095700;28;20365;-74
2021/06/20 05:08:54;;;;;;;6.90;2.47;;;;;;;22.32;64.17;96119.81;5096232;28;20044;-73
2021/06/20 05:11:20;;;;;;;5.68;2.83;;;;;;;22.25;64.51;96104.97;5095504;28;20401;-73
2021/06/20 05:13:47;;;;;;;4.68;2.70;;;;;;;22.22;64.93;96096.78;5095700;28;20052;-74
2021/06/20 05:16:13;;;;;;;5.65;2.22;;;;;;;22.21;65.63;96084.50;5095864;28;20028;-72
2021/06/20 05:18:39;;;;;;;4.38;2.30;;;;;;;22.20;66.11;96073.03;5094192;28;20036;-73
2021/06/20 05:21:05;;;;;;;4.63;2.40;;;;;;;22.21;66.91;96060.44;5095772;28;20441;-73
2021/06/20 05:23:32;;;;;;;6.25;2.60;;;;;;;22.24;67.56;96074.03;5095292;28;20032;-74
2021/06/20 05:25:58;;;;;;;5.28;2.58;;;;;;;22.27;67.83;96081.44;5095702;28;20040;-73
2021/06/20 05:28:24;;;;;;;4.65;2.30;;;;;;;22.24;68.49;96082.03;5094958;28;20051;-73
2021/06/20 05:30:50;;;;;;;5.40;2.65;;;;;;;22.24;68.84;96089.28;5095757;28;20051;-73
2021/06/20 05:33:18;;;;;;;5.80;2.50;;;;;;;22.22;69.26;96094.88;5095333;28;20036;-74
2021/06/20 05:35:46;;;;;;;4.75;2.60;;;;;;;22.27;70.13;96094.00;5094484;28;20039;-74
2021/06/20 05:38:13;;;;;;;6.53;3.00;;;;;;;22.31;70.21;96088.84;5095435;28;20039;-74
2021/06/20 05:40:40;;;;;;;4.53;2.40;;;;;;;22.33;70.50;96098.13;5095511;28;20432;-73
2021/06/20 05:43:06;;;;;;;6.25;2.10;;;;;;;22.39;70.66;96098.81;5094996;28;20058;-73
2021/06/20 05:45:33;;;;;;;4.55;2.40;;;;;;;22.42;71.04;96104.34;5094798;28;20048;-74
2021/06/20 05:47:59;;;;;;;4.28;2.20;;;;;;;22.47;71.11;96109.56;5095067;28;20047;-74
2021/06/20 05:50:25;;;;;;;3.53;1.92;;;;;;;22.49;71.66;96104.72;5080447;28;20490;-74
2021/06/20 05:52:53;;;;;;;4.35;2.53;;;;;;;22.54;72.01;96101.13;5095146;28;20036;-73
2021/06/20 05:55:19;;;;;;;3.40;1.83;;;;;;;22.60;72.01;96088.44;5095169;28;20067;-73
2021/06/20 05:57:45;;;;;;;2.88;2.30;;;;;;;22.68;72.08;96085.84;5094896;28;20408;-74
2021/06/20 06:00:13;;;;;;;4.60;2.22;;;;;;;22.82;72.37;96088.41;5094854;28;20024;-74
2021/06/20 06:02:40;;;;;;;3.80;2.38;;;;;;;22.98;72.12;96085.38;5094938;28;20398;-74
2021/06/20 06:05:08;;;;;;;4.57;2.20;;;;;;;23.13;71.90;96095.72;5094581;28;20032;-73
2021/06/20 06:07:35;;;;;;;4.25;2.45;;;;;;;23.28;71.78;96094.53;5094896;28;20032;-73
2021/06/20 06:10:02;;;;;;;6.78;2.40;;;;;;;23.30;70.67;96098.47;5095016;28;20040;-73
2021/06/20 06:12:28;;;;;;;4.78;2.40;;;;;;;23.26;70.09;96100.19;5094544;28;20503;-75
2021/06/20 06:14:55;;;;;;;7.68;2.72;;;;;;;23.26;69.64;96105.53;5094626;28;20491;-73
2021/06/20 06:17:23;;;;;;;5.45;2.30;;;;;;;23.26;69.30;96108.19;5094352;28;20036;-73
2021/06/20 06:19:51;;;;;;;8.30;2.90;;;;;;;23.27;69.20;96109.00;5094509;28;20040;-74
2021/06/20 06:22:20;;;;;;;3.03;1.77;;;;;;;23.21;68.54;96115.59;5082459;28;20036;-73
2021/06/20 06:24:47;;;;;;;4.85;2.30;;;;;;;23.13;67.94;96125.13;5094339;28;20028;-73
2021/06/20 06:27:14;;;;;;;4.38;2.28;;;;;;;23.09;68.20;96119.59;5094361;28;20036;-73
2021/06/20 06:29:40;;;;;;;4.00;2.08;;;;;;;23.19;68.38;96120.47;5094293;28;20036;-73
2021/06/20 06:32:08;;;;;;;7.57;2.60;;;;;;;23.25;67.98;96120.00;5093931;28;20043;-73
2021/06/20 06:34:35;;;;;;;5.05;2.47;;;;;;;23.15;67.76;96128.31;5093981;28;20032;-74
2021/06/20 06:37:03;;;;;;;5.30;2.25;;;;;;;23.12;67.84;96131.59;5094237;28;20056;-73
2021/06/20 06:39:29;;;;;;;5.05;2.67;;;;;;;23.20;67.90;96133.50;5093870;28;20406;-73
2021/06/20 06:41:55;;;;;;;6.35;2.55;;;;;;;23.24;67.79;96139.03;5093704;28;20045;-73
2021/06/20 06:44:22;;;;;;;6.00;2.83;;;;;;;23.37;68.01;96127.47;5093724;28;20035;-73
2021/06/20 06:46:48;;;;;;;7.78;2.67;;;;;;;23.43;67.49;96128.91;5093942;28;20044;-73
2021/06/20 06:49:15;;;;;;;7.07;2.80;;;;;;;23.48;67.37;96126.09;5092495;28;20036;-73
2021/06/20 06:51:41;;;;;;;6.43;2.65;;;;;;;23.55;67.42;96128.31;5094532;28;20036;-73
2021/06/20 06:54:08;;;;;;;5.40;2.72;;;;;;;23.54;67.33;96113.38;5093492;28;20056;-73
2021/06/20 06:56:34;;;;;;;4.90;2.42;;;;;;;23.38;67.15;96122.91;5093401;28;20431;-73
2021/06/20 06:59:01;;;;;;;6.80;2.65;;;;;;;23.22;67.42;96127.84;5093345;28;20059;-74
2021/06/20 07:01:28;;;;;;;6.50;2.80;;;;;;;23.19;67.64;96115.09;5079133;28;20040;-73
2021/06/20 07:03:55;;;;;;;5.38;2.75;;;;;;;23.23;67.15;96113.41;5093624;28;20040;-73
2021/06/20 07:06:27;;;;;;;5.95;2.78;;;;;;;23.32;67.16;96114.22;5093669;28;20051;-73
2021/06/20 07:08:53;;;;;;;5.63;2.10;;;;;;;23.42;66.73;96113.16;5093266;28;20048;-74
2021/06/20 07:11:20;;;;;;;5.13;2.25;;;;;;;23.49;66.34;96111.59;5093640;28;20497;-73
2021/06/20 07:13:47;;;;;;;4.10;2.13;;;;;;;23.50;65.81;96113.19;5093617;28;20047;-73
2021/06/20 07:16:13;;;;;;;4.57;1.98;;;;;;;23.51;65.24;96122.78;5093790;28;20032;-74
2021/06/20 07:18:39;;;;;;;5.38;2.28;;;;;;;23.49;64.59;96118.84;5093508;28;20039;-73
2021/06/20 07:21:06;;;;;;;5.97;2.30;;;;;;;23.44;64.36;96119.00;5093156;28;20047;-73
2021/06/20 07:23:32;;;;;;;4.90;2.10;;;;;;;23.40;64.16;96118.03;5093359;28;20047;-74
2021/06/20 07:25:59;;;;;;;4.78;2.30;;;;;;;23.33;64.12;96125.69;5092379;28;20475;-74
2021/06/20 07:28:26;;;;;;;4.72;2.22;;;;;;;23.27;63.96;96130.41;5093837;28;20040;-73
2021/06/20 07:30:52;;;;;;;3.78;1.80;;;;;;;23.27;64.30;96125.84;5092744;28;20040;-73
2021/06/20 07:33:20;;;;;;;5.32;2.15;;;;;;;23.29;64.63;96128.22;5093207;28;20032;-73
2021/06/20 07:35:51;;;;;;;4.38;1.92;;;;;;;23.31;64.33;96142.09;5093322;28;20032;-73
2021/06/20 07:38:21;;;;;;;5.43;2.00;;;;;;;23.27;64.25;96139.22;5093447;28;20392;-73
2021/06/20 07:40:48;;;;;;;4.13;2.17;;;;;;;23.23;64.32;96140.16;5093074;28;20040;-73
2021/06/20 07:43:14;;;;;;;4.32;1.85;;;;;;;23.21;64.35;96143.13;5092018;28;20039;-73
2021/06/20 07:45:41;;;;;;;3.42;1.95;;;;;;;23.21;64.29;96142.34;5093424;28;20467;-73
2021/06/20 07:48:08;;;;;;;4.50;2.28;;;;;;;23.22;64.08;96142.00;5093105;28;20032;-73
2021/06/20 07:50:35;;;;;;;4.68;2.10;;;;;;;23.24;64.19;96133.69;5093396;28;20039;-73
2021/06/20 07:53:01;;;;;;;4.93;2.38;;;;;;;23.26;63.91;96131.50;5093101;28;20043;-73
2021/06/20 07:55:28;;;;;;;3.03;2.03;;;;;;;23.24;64.12;96136.38;5092927;28;20055;-73
2021/06/20 07:57:54;;;;;;;3.25;2.00;;;;;;;23.30;64.11;96140.50;5093817;28;20044;-73
2021/06/20 08:00:22;;;;;;;3.80;2.13;;;;;;;23.40;63.86;96145.59;5097196;28;20055;-73
2021/06/20 08:02:48;;;;;;;2.50;1.95;;;;;;;23.43;63.42;96136.94;5097001;28;20036;-73
2021/06/20 08:05:15;;;;;;;3.38;1.60;;;;;;;23.40;62.85;96136.78;5097084;28;20472;-73
2021/06/20 08:07:41;;;;;;;4.55;2.20;;;;;;;23.36;62.70;96128.56;5096933;28;20039;-73
2021/06/20 08:10:08;;;;;;;2.88;1.50;;;;;;;23.34;62.65;96130.75;5096759;28;20036;-73
2021/06/20 08:12:35;;;;;;;3.55;1.70;;;;;;;23.36;62.52;96127.78;5096943;28;20047;-74
2021/06/20 08:15:01;;;;;;;3.25;1.42;;;;;;;23.34;62.03;96125.41;5096733;28;20423;-74
2021/06/20 08:17:27;;;;;;;4.40;2.00;;;;;;;23.37;61.83;96129.34;5097009;28;20051;-73
2021/06/20 08:19:53;;;;;;;3.25;1.50;;;;;;;23.42;61.79;96121.97;5096651;28;20055;-74
2021/06/20 08:22:20;;;;;;;2.33;2.00;;;;;;;23.47;61.54;96121.06;5096346;28;20051;-73
2021/06/20 08:24:47;;;;;;;2.53;1.70;;;;;;;23.54;61.32;96121.41;5096773;28;20043;-73
2021/06/20 08:27:13;;;;;;;3.22;1.65;;;;;;;23.61;61.62;96113.72;5096293;28;20056;-73
2021/06/20 08:29:40;;;;;;;2.60;1.45;;;;;;;23.65;61.16;96113.88;5096464;28;20469;-73
2021/06/20 08:32:06;;;;;;;2.88;1.67;;;;;;;23.73;60.99;96120.34;5094632;28;20048;-73
2021/06/20 08:34:33;;;;;;;3.88;1.95;;;;;;;23.82;61.09;96113.97;5096532;28;20388;-75
2021/06/20 08:37:01;;;;;;;4.32;1.65;;;;;;;23.95;60.77;96114.94;5096611;28;20047;-74
2021/06/20 08:39:28;;;;;;;3.22;1.65;;;;;;;24.04;60.23;96117.63;5096451;28;20036;-74
2021/06/20 08:41:54;;;;;;;4.35;1.60;;;;;;;23.99;59.67;96105.19;5096799;28;20031;-73
2021/06/20 08:44:27;;;;;;;3.10;1.70;;;;;;;23.95;58.90;96096.19;5096076;28;20035;-73
2021/06/20 08:46:54;;;;;;;2.53;1.88;;;;;;;23.96;59.39;96088.94;5096018;28;20062;-73
2021/06/20 08:49:21;;;;;;;2.50;1.50;;;;;;;23.97;59.15;96088.63;5096146;28;20028;-74
2021/06/20 08:51:50;;;;;;;2.30;1.52;;;;;;;23.99;59.26;96083.75;5095919;28;20511;-73
2021/06/20 08:54:17;;;;;;;3.33;1.60;;;;;;;23.97;58.90;96088.63;5096411;28;20063;-73
2021/06/20 08:56:44;;;;;;;2.78;1.38;;;;;;;24.03;59.00;96087.38;5096146;28;20055;-73
2021/06/20 08:59:14;;;;;;;5.13;1.92;;;;;;;24.14;58.75;96084.41;5095892;28;20473;-73
2021/06/20 09:01:41;;;;;;;1.75;1.33;;;;;;;24.28;58.76;96085.03;5095445;28;20052;-73
2021/06/20 09:04:08;;;;;;;3.67;1.52;;;;;;;24.42;58.74;96084.88;5095782;28;20047;-73
2021/06/20 09:06:34;;;;;;;2.45;1.50;;;;;;;24.43;58.16;96073.06;5096506;28;20392;-73
2021/06/20 09:09:08;;;;;;;3.63;1.50;;;;;;;24.44;57.07;96070.06;5095025;28;20059;-73
2021/06/20 09:11:40;;;;;;;3.53;1.58;;;;;;;24.45;56.19;96065.50;5095431;28;20032;-73
2021/06/20 09:14:14;;;;;;;4.65;1.30;;;;;;;24.52;56.08;96068.50;5095767;28;20040;-73
2021/06/20 09:16:49;;;;;;;2.20;1.40;;;;;;;24.57;53.98;96054.94;5095652;28;20031;-73
2021/06/20 09:19:16;;;;;;;1.67;1.02;;;;;;;24.54;55.63;96063.63;5095464;28;20040;-73
2021/06/20 09:21:53;;;;;;;2.15;1.27;;;;;;;24.54;52.11;96027.97;5095837;28;20040;-74
2021/06/20 09:24:20;;;;;;;2.15;1.38;;;;;;;24.62;54.25;96049.41;5095188;28;20044;-73
2021/06/20 09:26:55;;;;;;;2.97;1.50;;;;;;;24.81;53.11;96037.56;5095433;28;20043;-74
2021/06/20 09:29:39;;;;;;;2.75;1.17;;;;;;;24.92;50.30;96004.72;5095495;28;20043;-74
2021/06/20 09:32:07;;;;;;;;;;;;;;;24.99;52.57;96027.53;5096328;28;20043;-73
2021/06/20 09:34:45;;;;;;;2.47;1.10;;;;;;;25.07;50.07;96010.63;5094784;28;20283;-73
2021/06/20 09:37:12;;;;;;;3.38;1.30;;;;;;;25.06;51.71;96020.59;5095216;28;20039;-73
2021/06/20 09:39:39;;;;;;;2.25;1.10;;;;;;;25.16;50.99;96019.44;5095230;28;20046;-74
2021/06/20 09:42:07;;;;;;;1.60;1.13;;;;;;;25.29;50.65;96002.34;5095540;28;20036;-73
2021/06/20 09:44:54;;;;;;;1.63;0.95;;;;;;;25.35;49.40;95994.13;5095179;28;20040;-73
2021/06/20 09:47:26;;;;;;;3.05;1.23;;;;;;;25.34;50.22;96001.38;5095149;28;20036;-74
2021/06/20 09:49:55;;;;;;;3.53;1.02;;;;;;;25.36;49.95;95993.78;5094957;28;20418;-73
2021/06/20 09:52:30;;;;;;;2.83;0.98;;;;;;;25.41;48.67;95988.25;5095118;28;20369;-73
2021/06/20 09:54:59;;;;;;;1.65;1.10;;;;;;;25.57;49.47;95985.78;5094905;28;20056;-74
2021/06/20 09:57:25;;;;;;;1.65;1.13;;;;;;;25.81;48.94;95984.38;5094987;28;20055;-73
2021/06/20 10:00:00;;;;;;;1.30;1.10;;;;;;;26.05;47.60;95959.53;5094647;28;20036;-74
2021/06/20 10:02:31;;;;;;;1.33;0.82;;;;;;;26.07;45.61;95952.72;5094776;28;20044;-73
2021/06/20 10:04:59;;;;;;;2.45;1.02;;;;;;;26.04;47.01;95966.81;5094861;28;20051;-73
2021/06/20 10:07:27;;;;;;;3.03;1.13;;;;;;;25.98;46.96;95964.69;5095132;28;20036;-73
2021/06/20 10:09:55;;;;;;;2.65;1.17;;;;;;;26.03;47.10;95964.47;5094618;28;20047;-74
2021/06/20 10:12:22;;;;;;;2.90;1.02;;;;;;;26.09;46.81;95960.47;5094508;28;20477;-73
2021/06/20 10:14:51;;;;;;;1.38;1.00;;;;;;;26.07;46.55;95954.63;5093209;28;20032;-73
2021/06/20 10:17:39;;;;;;;2.33;1.30;;;;;;;25.90;44.74;95945.59;5082882;28;20032;-72
2021/06/20 10:20:09;;;;;;;3.00;1.40;;;;;;;26.05;46.25;95957.63;5080195;28;20036;-73
2021/06/20 10:22:38;;;;;;;3.97;1.38;;;;;;;26.27;46.25;95953.00;5093761;28;20503;-73
2021/06/20 10:25:07;;;;;;;2.55;0.95;;;;;;;26.44;45.52;95960.91;5094680;28;20044;-73
2021/06/20 10:27:48;;;;;;;1.60;1.00;;;;;;;26.47;45.07;95967.53;5094246;28;20384;-72
2021/06/20 10:30:23;;;;;;;1.52;1.00;;;;;;;26.41;42.51;95948.13;5079665;28;20040;-73
2021/06/20 10:32:51;;;;;;;3.60;1.42;;;;;;;26.39;44.70;95968.41;5094504;28;20036;-73
2021/06/20 10:35:24;;;;;;;4.10;1.20;;;;;;;26.42;43.35;95955.09;5094325;28;20039;-73
2021/06/20 10:37:53;;;;;;;2.72;1.35;;;;;;;26.50;44.13;95954.22;5093864;28;20047;-73
2021/06/20 10:40:29;;;;;;;2.67;1.33;;;;;;;26.67;41.78;95934.44;5093467;28;20388;-73
2021/06/20 10:42:57;;;;;;;2.33;1.10;;;;;;;26.75;43.44;95951.59;5094055;28;20476;-73
2021/06/20 10:45:33;;;;;;;1.40;1.30;;;;;;;26.94;43.04;95953.72;5094525;28;20036;-73
2021/06/20 10:48:16;;;;;;;2.95;1.20;;;;;;;27.09;42.61;95950.38;5094025;28;20468;-73
2021/06/20 10:50:58;;;;;;;1.30;1.15;;;;;;;27.39;41.51;95933.25;5094207;28;20465;-73
2021/06/20 10:53:26;;;;;;;2.28;1.38;;;;;;;27.43;42.19;95943.00;5093797;28;20157;-73
2021/06/20 10:55:53;;;;;;;3.30;1.20;;;;;;;27.38;42.07;95947.81;5093346;28;20412;-73
2021/06/20 10:58:29;;;;;;;3.45;1.60;;;;;;;27.27;41.42;95952.88;5093644;28;20037;-73
2021/06/20 11:01:13;;;;;;;3.25;1.35;;;;;;;27.28;40.28;95924.84;5092740;28;20052;-73
2021/06/20 11:03:42;;;;;;;4.20;1.42;;;;;;;27.40;41.54;95942.88;5083728;28;20043;-73
2021/06/20 11:06:08;;;;;;;3.35;1.30;;;;;;;27.59;41.18;95936.88;5093740;28;20484;-73
2021/06/20 11:08:39;;;;;;;3.20;1.33;;;;;;;27.76;40.44;95922.34;5092339;28;20039;-73
2021/06/20 11:11:15;;;;;;;4.25;1.90;;;;;;;27.85;40.99;95929.19;5093500;28;20040;-73
2021/06/20 11:13:48;;;;;;;4.70;2.00;;;;;;;28.02;39.75;95924.66;5093718;28;20032;-73
2021/06/20 11:16:25;;;;;;;4.05;1.27;;;;;;;28.10;38.97;95923.75;5093520;28;20403;-73
2021/06/20 11:19:13;;;;;;;6.03;2.55;;;;;;;28.15;39.16;95931.56;5093260;28;20043;-73
2021/06/20 11:21:52;;;;;;;3.42;1.40;;;;;;;28.16;39.09;95924.25;5093179;28;20036;-73
2021/06/20 11:24:23;;;;;;;3.38;1.50;;;;;;;28.17;39.00;95928.53;5093794;28;20423;-73
2021/06/20 11:26:55;;;;;;;3.33;1.35;;;;;;;28.38;39.19;95912.91;5092984;28;20044;-73
2021/06/20 11:29:22;;;;;;;4.07;1.83;;;;;;;28.48;39.32;95914.31;5093364;28;20032;-73
2021/06/20 11:31:51;;;;;;;6.45;2.03;;;;;;;28.50;39.28;95904.78;5093020;28;20044;-74
2021/06/20 11:34:17;;;;;;;6.18;2.17;;;;;;;28.59;38.81;95895.72;5092534;28;20024;-73
2021/06/20 11:36:43;;;;;;;5.10;1.92;;;;;;;28.74;38.61;95884.91;5093253;28;20479;-73